Time;durP1;ratioP1;P1;durP2;ratioP2;P2;SDS_P1;SDS_P2;PMS_P1;PMS_P2;Temp;Humidity;BMP_temperature;BMP_pressure;BME280_temperature;BME280_humidity;BME280_pressure;Samples;Min_cycle;Max_cycle;Signal;HPM_P1;HPM_P2
2022/12/03 00:03:09;;;;;;;72.80;26.00;;;;;;;-1.02;83.81;101729.58;637438;1309;139320;-75
2022/12/03 00:18:13;;;;;;;97.90;31.50;;;;;;;-1.00;83.85;101730.75;636908;1306;138848;-76
2022/12/03 00:33:16;;;;;;;84.80;30.40;;;;;;;-0.97;83.88;101714.55;636857;1315;138831;-78
2022/12/03 00:48:19;;;;;;;82.60;26.60;;;;;;;-1.01;85.23;101709.64;637022;1315;138722;-77
2022/12/03 01:03:22;;;;;;;91.50;29.80;;;;;;;-0.92;85.91;101703.98;639359;1315;138814;-76
2022/12/03 01:18:26;;;;;;;81.70;27.00;;;;;;;-0.75;86.32;101696.31;637691;1304;138851;-78
2022/12/03 01:33:29;;;;;;;79.80;28.60;;;;;;;-0.71;86.63;101692.11;637998;1314;140411;-76
2022/12/03 01:48:36;;;;;;;86.40;28.10;;;;;;;-0.61;86.90;101683.00;654848;1303;139259;-75
2022/12/03 02:03:40;;;;;;;65.40;24.20;;;;;;;-0.53;87.24;101673.39;653919;1315;139105;-78
2022/12/03 02:18:43;;;;;;;80.90;28.30;;;;;;;-0.53;87.79;101669.59;637650;1308;139420;-79
2022/12/03 02:33:46;;;;;;;68.40;23.20;;;;;;;-0.43;88.84;101662.38;638019;1309;139178;-79
2022/12/03 02:48:50;;;;;;;73.60;27.80;;;;;;;-0.30;88.52;101656.59;637490;1315;138909;-79
2022/12/03 03:03:53;;;;;;;74.40;26.50;;;;;;;-0.27;88.48;101654.98;637512;1307;139153;-79
2022/12/03 03:18:57;;;;;;;78.20;28.00;;;;;;;-0.34;88.61;101654.63;637883;1315;138933;-76
2022/12/03 03:34:00;;;;;;;80.90;26.80;;;;;;;-0.26;88.27;101651.52;637795;1315;138937;-78
2022/12/03 03:49:05;;;;;;;70.80;26.70;;;;;;;-0.30;88.11;101639.75;637954;1313;138733;-76
2022/12/03 04:04:18;;;;;;;63.90;24.40;;;;;;;-0.22;87.99;101629.92;637885;1308;139760;-77
2022/12/03 04:19:21;;;;;;;65.00;22.80;;;;;;;-0.30;88.50;101626.17;638170;1315;139235;-76
2022/12/03 04:49:49;;;;;;;58.70;20.80;;;;;;;-0.21;87.53;101618.23;637706;1315;139016;-77
2022/12/03 05:04:52;;;;;;;;;;;;;;;-0.28;86.98;101609.44;637511;1315;138863;-76
2022/12/03 05:35:17;;;;;;;176.30;56.50;;;;;;;-0.29;86.51;101606.37;638735;1316;139257;-76
2022/12/03 05:50:23;;;;;;;59.40;23.40;;;;;;;-0.21;85.93;101605.85;638251;1307;139576;-76
2022/12/03 06:05:27;;;;;;;57.80;23.40;;;;;;;-0.27;85.50;101600.30;638786;1310;139789;-76
2022/12/03 06:20:30;;;;;;;101.00;34.80;;;;;;;-0.21;85.34;101601.55;639095;1316;140282;-75
2022/12/03 06:35:33;;;;;;;77.20;31.20;;;;;;;-0.24;85.12;101601.27;644312;1303;140618;-74
2022/12/03 06:50:36;;;;;;;79.10;31.90;;;;;;;-0.16;86.05;101599.71;638354;1306;138930;-77
2022/12/03 07:05:40;;;;;;;66.10;25.40;;;;;;;0.03;85.88;101592.06;637671;1307;138710;-76
2022/12/03 07:20:43;;;;;;;141.90;54.90;;;;;;;0.03;86.85;101586.73;637823;1303;138732;-80
2022/12/03 07:35:46;;;;;;;134.60;39.40;;;;;;;0.15;87.29;101583.52;638601;1315;139608;-76
2022/12/03 07:50:50;;;;;;;144.70;48.80;;;;;;;0.33;87.94;101585.00;645805;1313;139441;-78
2022/12/03 08:05:53;;;;;;;160.70;51.10;;;;;;;0.72;87.70;101591.08;637571;1315;139023;-76
2022/12/03 08:20:57;;;;;;;121.30;47.20;;;;;;;1.00;87.07;101595.33;641199;1315;139003;-77
2022/12/03 08:36:21;;;;;;;406.50;137.10;;;;;;;0.95;86.93;101593.39;637136;1315;139200;-78
2022/12/03 08:51:26;;;;;;;185.20;70.50;;;;;;;0.54;86.74;101576.72;638648;1313;138296;-79
2022/12/03 09:06:29;;;;;;;293.90;115.20;;;;;;;0.63;86.89;101576.52;645647;1312;138523;-76
2022/12/03 09:21:32;;;;;;;149.40;60.20;;;;;;;0.80;86.23;101575.01;639618;1305;138948;-76
2022/12/03 09:36:35;;;;;;;99.80;38.70;;;;;;;0.91;86.25;101570.77;640137;1312;138288;-76
2022/12/03 09:51:39;;;;;;;145.70;51.40;;;;;;;0.67;84.78;101565.88;640050;1310;137810;-78
2022/12/03 10:06:42;;;;;;;183.30;67.80;;;;;;;0.72;85.23;101561.45;640774;1313;138515;-76
2022/12/03 10:21:48;;;;;;;65.20;29.90;;;;;;;0.85;86.10;101551.98;641715;1313;138840;-77
2022/12/03 10:37:18;;;;;;;121.80;45.60;;;;;;;0.86;85.98;101542.31;640022;1313;138279;-76
2022/12/03 10:52:22;;;;;;;393.30;129.60;;;;;;;1.03;85.32;101537.52;640047;1313;138517;-75
2022/12/03 11:07:29;;;;;;;248.00;81.90;;;;;;;0.96;86.38;101538.23;640111;1312;138961;-76
2022/12/03 11:22:42;;;;;;;129.40;48.60;;;;;;;0.92;85.33;101537.14;640198;1313;138306;-76
2022/12/03 11:37:45;;;;;;;94.90;42.30;;;;;;;0.85;85.24;101512.87;640841;1304;141721;-78
2022/12/03 11:52:54;;;;;;;78.00;31.40;;;;;;;0.75;85.41;101493.00;641497;1311;137889;-77
2022/12/03 12:07:59;;;;;;;79.20;30.90;;;;;;;0.82;86.71;101476.44;640198;1303;138399;-76
2022/12/03 12:23:21;;;;;;;81.50;35.40;;;;;;;1.60;86.50;101465.66;640330;1313;138241;-78
2022/12/03 12:38:27;;;;;;;226.60;96.00;;;;;;;1.68;84.63;101470.27;640677;1313;138361;-76
2022/12/03 12:53:32;;;;;;;152.60;54.60;;;;;;;1.50;84.33;101465.30;639032;1312;141199;-78
2022/12/03 13:08:43;;;;;;;454.00;136.80;;;;;;;1.31;83.97;101456.42;638141;1313;138250;-77
2022/12/03 13:23:48;;;;;;;304.10;98.90;;;;;;;1.25;83.92;101459.52;639410;1312;138269;-76
2022/12/03 13:38:52;;;;;;;285.80;97.40;;;;;;;1.10;83.67;101461.86;639394;1312;138313;-78
2022/12/03 13:53:58;;;;;;;471.20;217.60;;;;;;;1.08;83.98;101470.52;639933;1313;139551;-76
2022/12/03 14:09:01;;;;;;;96.00;39.30;;;;;;;1.12;84.64;101475.09;638625;1298;138971;-79
2022/12/03 14:24:05;;;;;;;237.20;72.10;;;;;;;1.04;84.47;101465.66;639290;1300;140726;-76
2022/12/03 14:39:09;;;;;;;122.80;51.50;;;;;;;0.98;84.77;101453.77;639499;1313;140592;-76
2022/12/03 14:54:12;;;;;;;110.00;43.40;;;;;;;1.00;85.69;101450.94;638128;1313;141544;-75
2022/12/03 15:09:16;;;;;;;304.10;95.20;;;;;;;1.08;85.69;101446.23;639010;1296;139697;-75
2022/12/03 15:24:19;;;;;;;178.70;54.70;;;;;;;1.01;85.66;101447.83;641094;1312;138338;-76
2022/12/03 15:39:22;;;;;;;146.90;50.90;;;;;;;0.86;86.20;101456.16;640939;1313;138368;-76
2022/12/03 15:54:26;;;;;;;246.10;79.70;;;;;;;1.00;86.26;101463.02;640087;1311;139157;-76
2022/12/03 16:09:29;;;;;;;132.90;49.50;;;;;;;1.17;87.23;101458.37;643331;1313;138447;-77
2022/12/03 16:24:32;;;;;;;224.80;81.60;;;;;;;1.08;86.91;101456.75;640887;1313;138475;-77
2022/12/03 16:39:36;;;;;;;162.70;68.40;;;;;;;1.07;87.64;101461.08;641686;1301;138509;-76
2022/12/03 16:54:39;;;;;;;418.60;124.30;;;;;;;1.19;87.68;101467.47;640501;1312;139474;-79
2022/12/03 17:09:43;;;;;;;517.50;204.60;;;;;;;1.04;88.00;101476.16;648555;1312;139040;-81
2022/12/03 17:24:47;;;;;;;221.00;83.90;;;;;;;0.95;89.65;101471.79;638757;1310;138495;-79
2022/12/03 17:39:50;;;;;;;112.50;42.60;;;;;;;1.21;90.19;101465.16;639733;1313;139066;-77
2022/12/03 17:54:54;;;;;;;127.30;46.20;;;;;;;1.28;89.63;101467.88;639860;1312;138814;-76
2022/12/03 18:10:16;;;;;;;133.60;47.60;;;;;;;1.31;90.30;101468.13;639811;1311;138326;-76
2022/12/03 18:25:19;;;;;;;331.20;109.80;;;;;;;1.34;91.05;101461.50;640427;1296;138183;-76
2022/12/03 18:40:25;;;;;;;185.10;70.30;;;;;;;1.52;92.10;101455.77;640775;1313;139339;-76
2022/12/03 18:55:33;;;;;;;185.30;64.20;;;;;;;1.72;92.00;101451.70;640987;1313;138864;-77
2022/12/03 19:10:36;;;;;;;170.30;61.80;;;;;;;1.72;92.31;101450.84;642313;1313;138737;-76
2022/12/03 19:25:39;;;;;;;199.80;69.20;;;;;;;1.76;92.99;101453.45;642338;1308;139059;-77
2022/12/03 19:40:43;;;;;;;197.90;73.70;;;;;;;1.94;93.56;101465.96;642086;1312;138788;-76
2022/12/03 19:55:46;;;;;;;142.40;55.80;;;;;;;2.12;93.59;101479.87;642370;1304;138967;-77
2022/12/03 20:10:50;;;;;;;270.90;81.70;;;;;;;2.23;94.04;101482.98;642367;1312;138193;-76
2022/12/03 20:25:53;;;;;;;165.60;65.20;;;;;;;2.21;94.08;101481.48;641706;1312;138622;-78
2022/12/03 20:41:05;;;;;;;102.10;41.20;;;;;;;2.34;94.54;101477.56;640854;1298;139582;-76
2022/12/03 20:56:09;;;;;;;111.60;45.20;;;;;;;2.46;95.11;101457.45;640346;1309;138558;-77
2022/12/03 21:11:17;;;;;;;206.20;67.00;;;;;;;2.39;95.18;101457.71;641386;1307;139046;-76
2022/12/03 21:26:21;;;;;;;162.20;73.90;;;;;;;2.41;95.34;101469.39;642179;1301;139040;-78
2022/12/03 21:41:25;;;;;;;162.20;54.50;;;;;;;2.55;95.85;101463.73;642232;1313;138863;-78
2022/12/03 21:56:30;;;;;;;159.60;54.20;;;;;;;2.71;96.11;101472.66;640192;1313;139285;-78
2022/12/03 22:11:34;;;;;;;138.90;51.60;;;;;;;2.70;95.94;101470.80;649979;1313;138563;-77
2022/12/03 22:26:38;;;;;;;200.80;66.00;;;;;;;2.75;96.53;101461.45;645901;1313;138672;-77
2022/12/03 22:41:41;;;;;;;109.80;38.70;;;;;;;2.89;97.09;101459.91;640081;1313;138721;-78
2022/12/03 22:56:44;;;;;;;131.60;44.30;;;;;;;2.90;97.34;101456.59;639688;1313;138859;-76
2022/12/03 23:11:48;;;;;;;129.20;42.10;;;;;;;2.86;98.12;101457.10;639097;1312;138514;-79
2022/12/03 23:34:53;;;;;;;167.80;50.90;;;;;;;3.04;98.64;101444.80;624435;1344;545055;-76
2022/12/03 23:49:56;;;;;;;206.00;64.60;;;;;;;2.98;98.68;101449.02;632855;1320;138230;-77
